createdAt,value
2018-05-29T00:02:09.642Z,16.47
2018-05-29T00:04:37.177Z,16.73
2018-05-29T00:07:04.700Z,16.93
2018-05-29T00:09:32.223Z,16.87
2018-05-29T00:11:59.832Z,17.40
2018-05-29T00:14:28.030Z,16.77
2018-05-29T00:16:55.553Z,16.73
2018-05-29T00:19:23.106Z,17.70
2018-05-29T00:21:50.619Z,17.40
2018-05-29T00:24:18.150Z,16.87
2018-05-29T00:26:45.682Z,17.97
2018-05-29T00:29:13.231Z,18.07
2018-05-29T00:31:40.747Z,17.43
2018-05-29T00:34:08.271Z,17.40
2018-05-29T00:36:35.787Z,18.13
2018-05-29T00:39:03.322Z,17.80
2018-05-29T00:41:30.950Z,17.87
2018-05-29T00:43:58.486Z,17.17
2018-05-29T00:46:26.328Z,17.40
2018-05-29T00:48:53.858Z,16.73
2018-05-29T00:51:21.380Z,17.40
2018-05-29T00:53:48.912Z,17.90
2018-05-29T00:56:16.427Z,17.50
2018-05-29T00:58:43.947Z,16.87
2018-05-29T01:01:11.463Z,17.63
2018-05-29T01:03:38.982Z,17.97
2018-05-29T01:06:06.525Z,19.30
2018-05-29T01:08:34.079Z,17.73
2018-05-29T01:11:01.599Z,18.23
2018-05-29T01:13:29.111Z,19.37
2018-05-29T01:15:56.630Z,18.67
2018-05-29T01:18:24.142Z,19.37
2018-05-29T01:20:51.654Z,18.83
2018-05-29T01:23:19.227Z,19.97
2018-05-29T01:25:46.743Z,20.33
2018-05-29T01:28:14.270Z,19.57
2018-05-29T01:30:41.797Z,20.17
2018-05-29T01:33:09.323Z,20.20
2018-05-29T01:35:36.846Z,19.53
2018-05-29T01:38:04.363Z,19.10
2018-05-29T01:40:31.876Z,20.20
2018-05-29T01:42:59.416Z,20.13
2018-05-29T01:45:26.940Z,20.10
2018-05-29T01:47:54.458Z,22.07
2018-05-29T01:50:21.979Z,20.53
2018-05-29T01:52:49.503Z,20.60
2018-05-29T01:55:17.025Z,23.07
2018-05-29T01:57:44.539Z,21.70
2018-05-29T02:00:12.055Z,21.73
2018-05-29T02:02:39.599Z,21.87
2018-05-29T02:05:07.131Z,23.67
2018-05-29T02:07:35.418Z,21.57
2018-05-29T02:10:02.934Z,21.87
2018-05-29T02:12:30.454Z,23.57
2018-05-29T02:14:57.971Z,23.53
2018-05-29T02:17:25.480Z,23.43
2018-05-29T02:19:52.995Z,24.53
2018-05-29T02:22:20.519Z,23.60
2018-05-29T02:24:48.038Z,22.90
2018-05-29T02:27:15.563Z,22.33
2018-05-29T02:29:43.083Z,21.53
2018-05-29T02:32:10.597Z,21.60
2018-05-29T02:34:38.151Z,21.57
2018-05-29T02:37:05.672Z,22.90
2018-05-29T02:39:33.184Z,21.80
2018-05-29T02:42:00.703Z,21.60
2018-05-29T02:44:28.224Z,22.30
2018-05-29T02:46:55.751Z,22.57
2018-05-29T02:49:23.276Z,22.17
2018-05-29T02:51:50.792Z,23.50
2018-05-29T02:54:18.315Z,22.50
2018-05-29T02:56:45.831Z,23.43
2018-05-29T02:59:13.351Z,23.83
2018-05-29T03:01:40.878Z,24.87
2018-05-29T03:04:08.391Z,23.07
2018-05-29T03:06:35.908Z,24.47
2018-05-29T03:09:03.431Z,26.37
2018-05-29T03:11:30.950Z,25.10
2018-05-29T03:13:58.507Z,25.80
2018-05-29T03:16:26.035Z,24.97
2018-05-29T03:18:53.562Z,24.73
2018-05-29T03:21:21.084Z,24.30
2018-05-29T03:23:48.622Z,23.50
2018-05-29T03:26:16.139Z,23.67
2018-05-29T03:28:43.686Z,23.97
2018-05-29T03:31:11.231Z,24.80
2018-05-29T03:33:38.780Z,24.70
2018-05-29T03:36:07.068Z,26.00
2018-05-29T03:38:34.602Z,25.70
2018-05-29T03:41:02.124Z,25.77
2018-05-29T03:43:29.645Z,25.77
2018-05-29T03:45:57.159Z,24.10
2018-05-29T03:48:24.684Z,26.87
2018-05-29T03:50:52.205Z,24.97
2018-05-29T03:53:19.723Z,25.63
2018-05-29T03:55:47.250Z,25.57
2018-05-29T03:58:14.771Z,27.87
2018-05-29T04:00:42.299Z,26.13
2018-05-29T04:03:10.702Z,27.50
2018-05-29T04:05:38.219Z,29.23
2018-05-29T04:08:06.507Z,28.13
2018-05-29T04:10:34.025Z,27.23
2018-05-29T04:13:01.541Z,28.93
2018-05-29T04:15:29.067Z,27.80
2018-05-29T04:17:56.587Z,28.63
2018-05-29T04:20:24.103Z,28.70
2018-05-29T04:22:51.633Z,29.33
2018-05-29T04:25:19.152Z,29.10
2018-05-29T04:27:46.883Z,29.63
2018-05-29T04:30:15.167Z,28.93
2018-05-29T04:32:42.694Z,29.53
2018-05-29T04:35:10.212Z,28.93
2018-05-29T04:37:37.798Z,28.83
2018-05-29T04:40:05.329Z,29.50
2018-05-29T04:42:32.863Z,28.67
2018-05-29T04:45:00.383Z,29.53
2018-05-29T04:47:27.912Z,29.03
2018-05-29T04:49:57.614Z,29.53
2018-05-29T04:52:25.141Z,28.73
2018-05-29T04:54:52.670Z,28.13
2018-05-29T04:57:20.767Z,29.03
2018-05-29T04:59:48.289Z,29.27
2018-05-29T05:02:15.815Z,29.00
2018-05-29T05:04:43.328Z,29.73
2018-05-29T05:07:10.879Z,30.40
2018-05-29T05:09:38.393Z,30.50
2018-05-29T05:12:05.908Z,30.10
2018-05-29T05:14:33.436Z,30.17
2018-05-29T05:17:00.956Z,29.03
2018-05-29T05:19:28.471Z,30.60
2018-05-29T05:21:55.999Z,30.77
2018-05-29T05:24:23.520Z,30.73
2018-05-29T05:26:51.057Z,30.67
2018-05-29T05:29:18.597Z,29.67
2018-05-29T05:31:46.124Z,29.50
2018-05-29T05:34:13.650Z,29.77
2018-05-29T05:36:41.171Z,29.87
2018-05-29T05:39:08.692Z,29.00
2018-05-29T05:41:36.214Z,29.10
2018-05-29T05:44:04.644Z,27.07
2018-05-29T05:46:32.162Z,27.80
2018-05-29T05:49:00.386Z,27.93
2018-05-29T05:51:29.284Z,28.63
2018-05-29T05:53:56.810Z,26.40
2018-05-29T05:56:24.332Z,27.17
2018-05-29T05:58:51.875Z,27.17
2018-05-29T06:01:19.782Z,25.63
2018-05-29T06:03:47.308Z,24.47
2018-05-29T06:06:14.834Z,22.77
2018-05-29T06:08:42.359Z,23.12
2018-05-29T06:11:09.882Z,23.40
2018-05-29T06:13:38.054Z,21.83
2018-05-29T06:16:05.578Z,22.92
2018-05-29T06:18:33.095Z,19.20
2018-05-29T06:21:00.616Z,19.25
2018-05-29T06:23:28.145Z,17.98
2018-05-29T06:25:55.668Z,17.70
2018-05-29T06:28:23.516Z,18.45
2018-05-29T06:30:51.044Z,16.80
2018-05-29T06:33:18.572Z,15.55
2018-05-29T06:35:46.097Z,15.52
2018-05-29T06:38:13.620Z,15.50
2018-05-29T06:40:41.953Z,15.27
2018-05-29T06:43:09.491Z,14.48
2018-05-29T06:45:37.277Z,14.25
2018-05-29T06:48:04.800Z,14.05
2018-05-29T06:50:33.151Z,15.20
2018-05-29T06:53:00.664Z,14.32
2018-05-29T06:55:28.198Z,14.25
2018-05-29T06:57:56.482Z,14.40
2018-05-29T07:00:24.033Z,14.30
2018-05-29T07:02:51.550Z,14.27
2018-05-29T07:05:19.071Z,12.93
2018-05-29T07:07:47.346Z,13.25
2018-05-29T07:10:14.859Z,13.10
2018-05-29T07:12:42.379Z,12.48
2018-05-29T07:15:09.940Z,12.60
2018-05-29T07:17:37.467Z,13.15
2018-05-29T07:20:04.998Z,14.27
2018-05-29T07:22:32.526Z,12.27
2018-05-29T07:25:00.058Z,12.10
2018-05-29T07:27:27.580Z,11.85
2018-05-29T07:29:55.111Z,11.30
2018-05-29T07:32:22.627Z,11.52
2018-05-29T07:34:50.190Z,12.35
2018-05-29T07:37:18.543Z,12.90
2018-05-29T07:39:46.132Z,12.00
2018-05-29T07:42:13.627Z,12.18
2018-05-29T07:44:41.151Z,12.37
2018-05-29T07:47:08.732Z,11.65
2018-05-29T07:49:36.256Z,11.63
2018-05-29T07:52:03.851Z,11.45
2018-05-29T07:54:31.365Z,10.43
2018-05-29T07:56:58.886Z,11.27
2018-05-29T07:59:26.485Z,11.50
2018-05-29T08:01:54.002Z,10.77
2018-05-29T08:04:21.877Z,11.10
2018-05-29T08:06:49.560Z,11.20
2018-05-29T08:09:17.090Z,12.05
2018-05-29T08:11:44.624Z,11.07
2018-05-29T08:14:12.163Z,10.73
2018-05-29T08:16:39.679Z,10.95
2018-05-29T08:19:07.191Z,11.32
2018-05-29T08:21:34.745Z,12.35
2018-05-29T08:24:02.268Z,12.05
2018-05-29T08:26:29.779Z,12.13
2018-05-29T08:28:57.304Z,12.45
2018-05-29T08:31:25.170Z,11.52
2018-05-29T08:33:53.575Z,13.00
2018-05-29T08:36:21.350Z,12.65
2018-05-29T08:38:48.877Z,12.52
2018-05-29T08:41:16.410Z,12.35
2018-05-29T08:43:43.931Z,11.65
2018-05-29T08:46:11.446Z,12.40
2018-05-29T08:48:38.963Z,10.77
2018-05-29T08:51:07.251Z,11.20
2018-05-29T08:53:34.767Z,10.65
2018-05-29T08:56:02.332Z,11.43
2018-05-29T08:58:29.859Z,12.02
2018-05-29T09:00:57.385Z,12.13
2018-05-29T09:03:25.723Z,12.50
2018-05-29T09:05:53.239Z,11.12
2018-05-29T09:08:20.787Z,10.82
2018-05-29T09:10:49.123Z,11.35
2018-05-29T09:13:16.940Z,10.05
2018-05-29T09:15:44.511Z,10.13
2018-05-29T09:18:12.047Z,8.85
2018-05-29T09:20:40.331Z,9.20
2018-05-29T09:23:07.889Z,9.82
2018-05-29T09:25:35.439Z,9.32
2018-05-29T09:28:02.969Z,9.25
2018-05-29T09:30:30.489Z,8.68
2018-05-29T09:32:58.412Z,9.43
2018-05-29T09:35:25.987Z,9.07
2018-05-29T09:37:54.235Z,8.48
2018-05-29T09:40:21.760Z,8.90
2018-05-29T09:42:49.274Z,9.65
2018-05-29T09:45:16.803Z,9.95
2018-05-29T09:47:44.320Z,8.48
2018-05-29T09:50:12.609Z,8.50
2018-05-29T09:52:40.143Z,9.05
2018-05-29T09:55:07.650Z,9.07
2018-05-29T09:57:35.182Z,9.70
2018-05-29T10:00:03.483Z,10.32
2018-05-29T10:02:31.045Z,10.20
2018-05-29T10:04:58.579Z,10.13
2018-05-29T10:07:26.126Z,9.77
2018-05-29T10:09:53.648Z,10.45
2018-05-29T10:12:22.919Z,10.93
2018-05-29T10:14:50.490Z,11.35
2018-05-29T10:17:18.011Z,11.35
2018-05-29T10:19:45.536Z,11.05
2018-05-29T10:22:13.101Z,11.23
2018-05-29T10:24:40.682Z,12.05
2018-05-29T10:27:08.170Z,12.25
2018-05-29T10:29:35.699Z,12.30
2018-05-29T10:32:03.227Z,12.15
2018-05-29T10:34:30.751Z,12.98
2018-05-29T10:36:58.275Z,11.65
2018-05-29T10:39:25.802Z,11.85
2018-05-29T10:41:53.326Z,12.32
2018-05-29T10:44:21.607Z,12.23
2018-05-29T10:46:49.156Z,12.57
2018-05-29T10:49:16.693Z,11.60
2018-05-29T10:51:44.216Z,12.77
2018-05-29T10:54:11.736Z,12.68
2018-05-29T10:56:40.023Z,12.23
2018-05-29T10:59:07.551Z,12.25
2018-05-29T11:01:36.162Z,11.63
2018-05-29T11:04:03.687Z,11.52
2018-05-29T11:06:31.247Z,11.12
2018-05-29T11:08:58.751Z,11.20
2018-05-29T11:11:26.280Z,11.48
2018-05-29T11:13:53.811Z,11.27
2018-05-29T11:16:21.340Z,11.27
2018-05-29T11:18:48.874Z,11.48
2018-05-29T11:21:17.174Z,11.52
2018-05-29T11:23:44.723Z,12.13
2018-05-29T11:26:13.007Z,11.20
2018-05-29T11:28:40.573Z,11.20
2018-05-29T11:31:08.146Z,11.52
2018-05-29T11:33:36.435Z,12.15
2018-05-29T11:36:03.973Z,11.43
2018-05-29T11:38:31.511Z,11.95
2018-05-29T11:40:59.803Z,11.48
2018-05-29T11:43:27.740Z,11.77
2018-05-29T11:45:55.250Z,11.90
2018-05-29T11:48:22.768Z,11.35
2018-05-29T11:50:50.286Z,11.80
2018-05-29T11:53:17.802Z,11.90
2018-05-29T11:55:47.117Z,11.25
2018-05-29T11:58:14.639Z,11.98
2018-05-29T12:00:42.147Z,11.65
2018-05-29T12:03:09.670Z,12.55
2018-05-29T12:05:37.983Z,11.40
2018-05-29T12:08:05.507Z,12.63
2018-05-29T12:10:33.035Z,12.30
2018-05-29T12:13:00.551Z,12.37
2018-05-29T12:15:28.083Z,12.35
2018-05-29T12:17:55.614Z,12.90
2018-05-29T12:20:23.922Z,12.80
2018-05-29T12:22:52.048Z,13.02
2018-05-29T12:25:19.583Z,12.55
2018-05-29T12:27:47.127Z,12.23
2018-05-29T12:30:14.656Z,12.73
2018-05-29T12:32:42.176Z,12.15
2018-05-29T12:35:09.700Z,13.20
2018-05-29T12:37:37.983Z,12.95
2018-05-29T12:40:05.515Z,13.13
2018-05-29T12:42:33.059Z,13.10
2018-05-29T12:45:00.592Z,12.60
2018-05-29T12:47:28.107Z,12.13
2018-05-29T12:49:55.642Z,12.75
2018-05-29T12:52:23.939Z,12.80
2018-05-29T12:54:51.471Z,12.73
2018-05-29T12:57:19.006Z,11.98
2018-05-29T12:59:46.522Z,12.98
2018-05-29T13:02:14.038Z,12.40
2018-05-29T13:04:41.559Z,12.30
2018-05-29T13:07:09.104Z,12.40
2018-05-29T13:09:36.617Z,12.57
2018-05-29T13:12:04.195Z,11.88
2018-05-29T13:14:31.724Z,11.90
2018-05-29T13:16:59.251Z,12.82
2018-05-29T13:19:26.776Z,13.23
2018-05-29T13:21:54.306Z,12.68
2018-05-29T13:24:21.839Z,14.13
2018-05-29T13:26:49.384Z,12.90
2018-05-29T13:29:16.902Z,13.82
2018-05-29T13:31:44.432Z,14.60
2018-05-29T13:34:11.985Z,14.05
2018-05-29T13:36:39.515Z,13.40
2018-05-29T13:39:07.058Z,14.35
2018-05-29T13:41:34.567Z,14.52
2018-05-29T13:44:02.085Z,13.73
2018-05-29T13:46:29.612Z,14.65
2018-05-29T13:48:57.132Z,13.25
2018-05-29T13:51:25.447Z,14.18
2018-05-29T13:53:52.979Z,14.60
2018-05-29T13:56:21.301Z,14.63
2018-05-29T13:58:48.815Z,14.32
2018-05-29T14:01:16.364Z,14.05
2018-05-29T14:03:43.898Z,14.02
2018-05-29T14:06:11.421Z,14.15
2018-05-29T14:08:38.939Z,14.45
2018-05-29T14:11:06.483Z,15.93
2018-05-29T14:13:34.009Z,14.93
2018-05-29T14:16:01.556Z,13.75
2018-05-29T14:18:29.087Z,13.40
2018-05-29T14:20:56.603Z,14.65
2018-05-29T14:23:24.135Z,14.43
2018-05-29T14:25:51.660Z,13.15
2018-05-29T14:28:19.177Z,12.32
2018-05-29T14:30:46.698Z,10.88
2018-05-29T14:33:14.223Z,11.27
2018-05-29T14:35:41.752Z,12.40
2018-05-29T14:38:09.281Z,12.27
2018-05-29T14:40:37.570Z,11.10
2018-05-29T14:43:05.088Z,9.93
2018-05-29T14:45:32.599Z,9.85
2018-05-29T14:48:00.691Z,10.95
2018-05-29T14:50:28.469Z,9.77
2018-05-29T14:52:55.990Z,10.57
2018-05-29T14:55:23.507Z,11.18
2018-05-29T14:57:51.039Z,10.68
2018-05-29T15:00:18.573Z,11.15
2018-05-29T15:02:46.105Z,11.07
2018-05-29T15:05:13.627Z,10.75
2018-05-29T15:07:41.148Z,11.80
2018-05-29T15:10:08.672Z,11.10
2018-05-29T15:12:36.191Z,10.98
2018-05-29T15:15:03.726Z,10.48
2018-05-29T15:17:32.016Z,12.35
2018-05-29T15:19:59.778Z,11.32
2018-05-29T15:22:27.304Z,12.10
2018-05-29T15:24:54.830Z,12.95
2018-05-29T15:27:22.378Z,11.60
2018-05-29T15:29:49.904Z,11.45
2018-05-29T15:32:17.431Z,12.02
2018-05-29T15:34:44.967Z,11.75
2018-05-29T15:37:12.495Z,11.98
2018-05-29T15:39:40.028Z,11.88
2018-05-29T15:42:07.553Z,12.75
2018-05-29T15:44:35.083Z,12.57
2018-05-29T15:47:02.615Z,12.27
2018-05-29T15:49:30.146Z,14.55
2018-05-29T15:51:57.668Z,13.13
2018-05-29T15:54:25.220Z,12.07
2018-05-29T15:56:52.743Z,12.48
2018-05-29T15:59:20.270Z,12.20
2018-05-29T16:01:47.800Z,13.10
2018-05-29T16:04:15.324Z,12.43
2018-05-29T16:06:42.855Z,12.35
2018-05-29T16:09:10.399Z,12.93
2018-05-29T16:11:37.937Z,13.00
2018-05-29T16:14:05.476Z,12.50
2018-05-29T16:16:33.029Z,13.18
2018-05-29T16:19:00.547Z,12.48
2018-05-29T16:21:28.079Z,12.63
2018-05-29T16:23:56.731Z,11.80
2018-05-29T16:26:24.255Z,12.93
2018-05-29T16:28:52.762Z,12.55
2018-05-29T16:31:20.288Z,12.45
2018-05-29T16:33:47.810Z,12.25
2018-05-29T16:36:15.332Z,11.35
2018-05-29T16:38:42.859Z,11.32
2018-05-29T16:41:10.689Z,11.85
2018-05-29T16:43:38.222Z,11.00
2018-05-29T16:46:06.076Z,9.93
2018-05-29T16:48:33.620Z,11.07
2018-05-29T16:51:01.145Z,9.95
2018-05-29T16:53:28.680Z,10.55
2018-05-29T16:55:56.203Z,9.85
2018-05-29T16:58:23.736Z,9.20
2018-05-29T17:00:52.014Z,7.75
2018-05-29T17:03:19.550Z,7.68
2018-05-29T17:05:47.062Z,7.90
2018-05-29T17:08:14.583Z,8.55
2018-05-29T17:10:42.856Z,9.20
2018-05-29T17:13:10.400Z,8.43
2018-05-29T17:15:37.923Z,8.38
2018-05-29T17:18:05.439Z,8.30
2018-05-29T17:20:32.953Z,8.25
2018-05-29T17:23:00.471Z,9.93
2018-05-29T17:25:28.006Z,9.60
2018-05-29T17:27:55.518Z,9.25
2018-05-29T17:30:23.044Z,10.07
2018-05-29T17:32:50.564Z,10.70
2018-05-29T17:35:18.088Z,10.87
2018-05-29T17:37:45.623Z,9.80
2018-05-29T17:40:13.912Z,11.00
2018-05-29T17:42:41.499Z,10.52
2018-05-29T17:45:09.855Z,10.18
2018-05-29T17:47:37.367Z,9.07
2018-05-29T17:50:04.920Z,10.13
2018-05-29T17:52:32.463Z,9.95
2018-05-29T17:54:59.990Z,10.37
2018-05-29T17:57:27.526Z,9.40
2018-05-29T17:59:55.051Z,9.33
2018-05-29T18:02:22.595Z,10.47
2018-05-29T18:04:50.127Z,9.97
2018-05-29T18:07:18.408Z,9.37
2018-05-29T18:09:45.988Z,10.37
2018-05-29T18:12:14.513Z,10.50
2018-05-29T18:14:42.071Z,11.27
2018-05-29T18:17:09.593Z,11.63
2018-05-29T18:19:37.132Z,11.18
2018-05-29T18:22:04.653Z,11.77
2018-05-29T18:24:32.170Z,12.77
2018-05-29T18:26:59.701Z,12.97
2018-05-29T18:29:27.277Z,13.70
2018-05-29T18:31:54.803Z,15.07
2018-05-29T18:34:22.339Z,15.10
2018-05-29T18:36:49.929Z,14.57
2018-05-29T18:39:17.680Z,14.87
2018-05-29T18:41:45.267Z,14.53
2018-05-29T18:44:12.895Z,15.77
2018-05-29T18:46:41.400Z,15.17
2018-05-29T18:49:09.006Z,15.93
2018-05-29T18:51:37.966Z,15.00
2018-05-29T18:54:06.705Z,17.00
2018-05-29T18:56:34.290Z,16.00
2018-05-29T18:59:01.803Z,15.80
2018-05-29T19:01:29.397Z,13.87
2018-05-29T19:03:56.918Z,12.17
2018-05-29T19:06:24.533Z,10.50
2018-05-29T19:08:52.935Z,9.47
2018-05-29T19:11:20.458Z,10.50
2018-05-29T19:13:47.971Z,10.50
2018-05-29T19:16:15.542Z,10.33
2018-05-29T19:18:43.071Z,9.60
2018-05-29T19:21:11.354Z,9.53
2018-05-29T19:23:38.912Z,10.53
2018-05-29T19:26:06.440Z,10.07
2018-05-29T19:28:34.699Z,9.13
2018-05-29T19:31:02.640Z,9.33
2018-05-29T19:33:30.168Z,9.53
2018-05-29T19:35:57.693Z,9.07
2018-05-29T19:38:25.305Z,9.67
2018-05-29T19:40:52.827Z,8.77
2018-05-29T19:43:20.359Z,9.20
2018-05-29T19:45:47.879Z,9.90
2018-05-29T19:48:15.443Z,10.37
2018-05-29T19:50:42.976Z,10.30
2018-05-29T19:53:10.549Z,9.70
2018-05-29T19:55:38.146Z,10.50
2018-05-29T19:58:05.810Z,10.50
2018-05-29T20:00:33.351Z,9.57
2018-05-29T20:03:00.915Z,10.13
2018-05-29T20:05:29.213Z,10.80
2018-05-29T20:07:56.812Z,11.00
2018-05-29T20:10:24.384Z,11.03
2018-05-29T20:12:51.910Z,10.60
2018-05-29T20:15:19.522Z,10.23
2018-05-29T20:17:47.065Z,10.77
2018-05-29T20:20:14.590Z,10.40
2018-05-29T20:22:42.399Z,11.50
2018-05-29T20:25:09.983Z,10.30
2018-05-29T20:27:37.895Z,11.27
2018-05-29T20:30:05.415Z,11.77
2018-05-29T20:32:32.954Z,10.13
2018-05-29T20:35:00.595Z,10.53
2018-05-29T20:37:28.207Z,11.70
2018-05-29T20:39:55.764Z,11.90
2018-05-29T20:42:23.297Z,12.77
2018-05-29T20:44:51.117Z,12.43
2018-05-29T20:47:18.698Z,11.80
2018-05-29T20:49:46.243Z,11.60
2018-05-29T20:52:14.159Z,11.63
2018-05-29T20:54:41.688Z,12.43
2018-05-29T20:57:09.543Z,12.27
2018-05-29T20:59:37.887Z,12.10
2018-05-29T21:02:05.400Z,11.10
2018-05-29T21:04:33.068Z,11.10
2018-05-29T21:07:00.719Z,11.27
2018-05-29T21:09:28.288Z,12.13
2018-05-29T21:11:55.819Z,11.17
2018-05-29T21:14:23.336Z,10.90
2018-05-29T21:16:50.935Z,11.13
2018-05-29T21:19:18.690Z,10.47
2018-05-29T21:21:46.284Z,10.37
2018-05-29T21:24:13.799Z,11.23
2018-05-29T21:26:42.364Z,11.10
2018-05-29T21:29:09.912Z,10.63
2018-05-29T21:31:37.460Z,11.27
2018-05-29T21:34:04.993Z,11.93
2018-05-29T21:36:32.517Z,11.20
2018-05-29T21:39:00.899Z,10.70
2018-05-29T21:41:28.638Z,11.20
2018-05-29T21:43:56.218Z,10.83
2018-05-29T21:46:23.745Z,10.83
2018-05-29T21:48:51.645Z,10.33
2018-05-29T21:51:19.203Z,11.70
2018-05-29T21:53:46.724Z,12.13
2018-05-29T21:56:14.364Z,11.50
2018-05-29T21:58:41.994Z,13.00
2018-05-29T22:01:10.904Z,11.83
2018-05-29T22:03:38.654Z,12.07
2018-05-29T22:06:06.269Z,13.30
2018-05-29T22:08:33.866Z,16.87
2018-05-29T22:11:01.584Z,18.13
2018-05-29T22:13:29.103Z,18.43
2018-05-29T22:15:56.767Z,17.40
2018-05-29T22:18:24.295Z,17.67
2018-05-29T22:20:51.833Z,19.80
2018-05-29T22:23:19.365Z,21.53
2018-05-29T22:25:46.894Z,19.93
2018-05-29T22:28:14.423Z,20.03
2018-05-29T22:30:42.043Z,20.80
2018-05-29T22:33:09.573Z,21.10
2018-05-29T22:35:37.128Z,21.43
2018-05-29T22:38:04.724Z,22.60
2018-05-29T22:40:33.035Z,21.40
2018-05-29T22:43:00.945Z,21.47
2018-05-29T22:45:28.520Z,20.60
2018-05-29T22:47:57.349Z,19.93
2018-05-29T22:50:24.875Z,19.50
2018-05-29T22:52:52.858Z,20.57
2018-05-29T22:55:20.445Z,18.90
2018-05-29T22:57:48.313Z,17.13
2018-05-29T23:00:15.892Z,15.87
2018-05-29T23:02:43.440Z,16.80
2018-05-29T23:05:11.263Z,17.70
2018-05-29T23:07:39.727Z,18.20
2018-05-29T23:10:07.292Z,19.67
2018-05-29T23:12:34.846Z,20.27
2018-05-29T23:15:02.682Z,21.27
2018-05-29T23:17:30.224Z,20.77
2018-05-29T23:19:57.735Z,23.47
2018-05-29T23:22:25.277Z,22.93
2018-05-29T23:24:52.795Z,22.70
2018-05-29T23:27:21.271Z,23.40
2018-05-29T23:29:48.853Z,24.13
2018-05-29T23:32:16.435Z,23.73
2018-05-29T23:34:43.960Z,24.03
2018-05-29T23:37:11.493Z,24.53
2018-05-29T23:39:39.008Z,25.70
2018-05-29T23:42:06.580Z,25.37
2018-05-29T23:44:34.091Z,25.43
2018-05-29T23:47:01.627Z,27.63
2018-05-29T23:49:29.915Z,26.13
2018-05-29T23:51:57.431Z,26.53
2018-05-29T23:54:24.958Z,25.97
2018-05-29T23:56:52.480Z,26.57
2018-05-29T23:59:20.011Z,26.70
